createdAt,value
2023-05-01T00:02:44.975Z,100473.13
2023-05-01T00:05:46.489Z,100470.25
2023-05-01T00:08:47.912Z,100466.63
2023-05-01T00:11:49.291Z,100457.63
2023-05-01T00:14:50.711Z,100453.19
2023-05-01T00:17:53.941Z,100459.28
2023-05-01T00:20:55.564Z,100454.69
2023-05-01T00:23:57.287Z,100452.03
2023-05-01T00:26:59.017Z,100445.09
2023-05-01T00:30:00.481Z,100443.19
2023-05-01T00:33:02.039Z,100436.97
2023-05-01T00:36:03.732Z,100436.22
2023-05-01T00:39:07.593Z,100434.44
2023-05-01T00:42:09.076Z,100427.41
2023-05-01T00:45:10.758Z,100428.38
2023-05-01T00:48:12.462Z,100425.78
2023-05-01T00:51:14.213Z,100421.63
2023-05-01T00:54:15.809Z,100419.31
2023-05-01T00:57:19.525Z,100417.66
2023-05-01T01:00:23.235Z,100409.84
2023-05-01T01:03:24.698Z,100416.16
2023-05-01T01:06:32.282Z,100413.84
2023-05-01T01:09:57.727Z,100405.34
2023-05-01T01:13:14.166Z,100413.88
2023-05-01T01:16:23.303Z,100414.06
2023-05-01T01:19:56.225Z,100402.69
2023-05-01T01:23:24.456Z,100398.06
2023-05-01T01:26:47.501Z,100396.22
2023-05-01T01:30:30.735Z,100391.31
2023-05-01T01:33:49.112Z,100396.22
2023-05-01T01:37:04.758Z,100393.03
2023-05-01T01:40:12.801Z,100399.47
2023-05-01T01:43:18.834Z,100399.50
2023-05-01T01:46:22.486Z,100403.13
2023-05-01T01:49:26.487Z,100398.72
2023-05-01T01:52:29.998Z,100399.63
2023-05-01T01:55:34.964Z,100397.97
2023-05-01T01:58:38.698Z,100393.66
2023-05-01T02:01:41.982Z,100394.69
2023-05-01T02:04:45.600Z,100393.72
2023-05-01T02:07:49.922Z,100395.69
2023-05-01T02:10:58.394Z,100394.13
2023-05-01T02:14:03.602Z,100394.19
2023-05-01T02:17:06.282Z,100385.78
2023-05-01T02:20:12.545Z,100392.72
2023-05-01T02:23:14.968Z,100397.78
2023-05-01T02:26:18.140Z,100390.75
2023-05-01T02:29:19.528Z,100397.78
2023-05-01T02:32:21.027Z,100391.47
2023-05-01T02:35:23.233Z,100390.50
2023-05-01T02:38:24.753Z,100387.72
2023-05-01T02:41:28.187Z,100380.91
2023-05-01T02:44:36.058Z,100373.63
2023-05-01T02:47:42.377Z,100369.09
2023-05-01T02:50:44.842Z,100370.78
2023-05-01T02:53:47.000Z,100364.72
2023-05-01T02:56:54.960Z,100361.28
2023-05-01T02:59:56.662Z,100363.91
2023-05-01T03:02:58.396Z,100358.63
2023-05-01T03:06:00.010Z,100354.16
2023-05-01T03:09:01.711Z,100346.28
2023-05-01T03:12:03.717Z,100346.13
2023-05-01T03:15:05.850Z,100354.81
2023-05-01T03:18:07.439Z,100344.34
2023-05-01T03:21:09.226Z,100343.44
2023-05-01T03:24:12.203Z,100346.06
2023-05-01T03:27:13.983Z,100337.38
2023-05-01T03:30:15.841Z,100345.16
2023-05-01T03:33:17.435Z,100341.66
2023-05-01T03:36:19.068Z,100339.91
2023-05-01T03:39:22.703Z,100326.91
2023-05-01T03:42:44.405Z,100329.53
2023-05-01T03:45:53.755Z,100332.19
2023-05-01T03:48:55.538Z,100330.47
2023-05-01T03:51:57.078Z,100327.56
2023-05-01T03:54:58.577Z,100326.91
2023-05-01T03:58:08.102Z,100324.16
2023-05-01T04:01:09.679Z,100327.03
2023-05-01T04:04:17.680Z,100332.44
2023-05-01T04:07:24.212Z,100332.44
2023-05-01T04:10:26.372Z,100332.34
2023-05-01T04:13:32.252Z,100333.38
2023-05-01T04:16:34.028Z,100328.03
2023-05-01T04:19:36.083Z,100327.97
2023-05-01T04:22:37.715Z,100320.16
2023-05-01T04:25:39.145Z,100328.94
2023-05-01T04:28:46.422Z,100318.31
2023-05-01T04:31:50.720Z,100328.03
2023-05-01T04:34:52.141Z,100324.00
2023-05-01T04:37:53.687Z,100315.13
2023-05-01T04:40:56.213Z,100321.28
2023-05-01T04:43:58.075Z,100323.75
2023-05-01T04:47:02.461Z,100323.53
2023-05-01T04:50:04.384Z,100323.44
2023-05-01T04:53:06.534Z,100323.44
2023-05-01T04:56:09.947Z,100325.13
2023-05-01T04:59:11.823Z,100322.31
2023-05-01T05:02:13.253Z,100320.50
2023-05-01T05:05:14.826Z,100328.47
2023-05-01T05:08:16.260Z,100326.53
2023-05-01T05:11:29.522Z,100331.88
2023-05-01T05:14:33.416Z,100328.38
2023-05-01T05:17:35.307Z,100322.94
2023-05-01T05:20:40.094Z,100333.50
2023-05-01T05:23:41.478Z,100327.97
2023-05-01T05:26:42.921Z,100326.91
2023-05-01T05:29:44.547Z,100329.41
2023-05-01T05:32:47.215Z,100330.00
2023-05-01T05:35:49.126Z,100334.28
2023-05-01T05:38:50.870Z,100331.59
2023-05-01T05:41:53.988Z,100335.03
2023-05-01T05:44:55.891Z,100336.81
2023-05-01T05:47:57.477Z,100341.78
2023-05-01T05:51:00.845Z,100339.44
2023-05-01T05:54:02.592Z,100328.59
2023-05-01T05:57:08.116Z,100335.78
2023-05-01T06:00:14.174Z,100334.75
2023-05-01T06:03:22.323Z,100335.50
2023-05-01T06:06:27.584Z,100330.84
2023-05-01T06:09:29.422Z,100325.41
2023-05-01T06:12:31.814Z,100327.50
2023-05-01T06:15:34.178Z,100323.13
2023-05-01T06:18:36.552Z,100324.69
2023-05-01T06:21:38.041Z,100320.13
2023-05-01T06:24:39.837Z,100312.75
2023-05-01T06:27:42.918Z,100314.38
2023-05-01T06:30:44.719Z,100326.41
2023-05-01T06:33:47.119Z,100320.13
2023-05-01T06:36:59.712Z,100326.06
2023-05-01T06:40:01.195Z,100331.44
2023-05-01T06:43:03.630Z,100330.56
2023-05-01T06:46:05.012Z,100327.91
2023-05-01T06:49:06.698Z,100329.94
2023-05-01T06:52:08.238Z,100331.28
2023-05-01T06:55:09.819Z,100333.94
2023-05-01T06:58:22.482Z,100336.50
2023-05-01T07:01:25.972Z,100341.78
2023-05-01T07:04:27.761Z,100336.16
2023-05-01T07:07:30.802Z,100342.03
2023-05-01T07:10:32.345Z,100339.94
2023-05-01T07:13:33.751Z,100335.28
2023-05-01T07:16:35.185Z,100338.56
2023-05-01T07:19:36.645Z,100341.44
2023-05-01T07:22:38.114Z,100347.66
2023-05-01T07:25:42.750Z,100348.47
2023-05-01T07:28:44.140Z,100350.88
2023-05-01T07:31:46.257Z,100347.44
2023-05-01T07:34:47.982Z,100344.97
2023-05-01T07:37:53.403Z,100343.88
2023-05-01T07:40:54.951Z,100349.00
2023-05-01T07:43:58.919Z,100351.31
2023-05-01T07:47:05.552Z,100351.19
2023-05-01T07:50:11.815Z,100338.84
2023-05-01T07:53:14.510Z,100342.72
2023-05-01T07:56:16.099Z,100348.03
2023-05-01T07:59:17.625Z,100331.78
2023-05-01T08:02:19.876Z,100333.56
2023-05-01T08:05:21.296Z,100335.28
2023-05-01T08:08:22.992Z,100348.38
2023-05-01T08:11:25.033Z,100347.31
2023-05-01T08:14:26.638Z,100345.19
2023-05-01T08:17:28.053Z,100348.72
2023-05-01T08:20:29.606Z,100342.56
2023-05-01T08:23:31.002Z,100345.13
2023-05-01T08:26:32.952Z,100355.44
2023-05-01T08:29:34.345Z,100351.69
2023-05-01T08:32:35.780Z,100349.84
2023-05-01T08:35:37.316Z,100338.94
2023-05-01T08:38:38.756Z,100350.97
2023-05-01T08:41:40.265Z,100350.69
2023-05-01T08:44:42.260Z,100348.59
2023-05-01T08:47:44.811Z,100343.69
2023-05-01T08:50:47.852Z,100344.63
2023-05-01T08:53:52.062Z,100342.28
2023-05-01T08:56:53.807Z,100336.69
2023-05-01T08:59:57.996Z,100334.41
2023-05-01T09:03:02.658Z,100337.91
2023-05-01T09:06:04.538Z,100332.44
2023-05-01T09:09:06.352Z,100336.84
2023-05-01T09:12:21.825Z,100338.69
2023-05-01T09:15:28.213Z,100332.97
2023-05-01T09:18:31.078Z,100329.44
2023-05-01T09:21:32.741Z,100331.34
2023-05-01T09:24:34.172Z,100331.69
2023-05-01T09:27:37.552Z,100321.56
2023-05-01T09:30:39.336Z,100334.94
2023-05-01T09:33:54.718Z,100333.66
2023-05-01T09:36:56.443Z,100333.16
2023-05-01T09:40:27.938Z,100324.13
2023-05-01T09:43:30.272Z,100322.06
2023-05-01T09:46:42.722Z,100324.31
2023-05-01T09:49:46.358Z,100323.63
2023-05-01T09:52:50.075Z,100320.69
2023-05-01T09:56:01.676Z,100325.16
2023-05-01T09:59:20.612Z,100331.28
2023-05-01T10:02:29.567Z,100328.13
2023-05-01T10:05:44.016Z,100331.38
2023-05-01T10:08:47.373Z,100331.84
2023-05-01T10:11:56.009Z,100328.50
2023-05-01T10:15:05.494Z,100333.94
2023-05-01T10:18:14.401Z,100332.69
2023-05-01T10:21:16.836Z,100333.66
2023-05-01T10:24:18.398Z,100323.66
2023-05-01T10:27:22.266Z,100323.38
2023-05-01T10:30:26.155Z,100320.09
2023-05-01T10:33:28.410Z,100327.38
2023-05-01T10:36:46.459Z,100325.44
2023-05-01T10:39:47.879Z,100315.44
2023-05-01T10:43:15.924Z,100325.81
2023-05-01T10:46:18.998Z,100324.38
2023-05-01T10:49:21.526Z,100322.75
2023-05-01T10:52:22.945Z,100316.06
2023-05-01T10:55:35.161Z,100316.22
2023-05-01T10:58:36.615Z,100311.72
2023-05-01T11:01:43.136Z,100304.22
2023-05-01T11:04:50.850Z,100307.94
2023-05-01T11:08:34.027Z,100307.50
2023-05-01T11:11:35.368Z,100294.53
2023-05-01T11:15:05.765Z,100295.06
2023-05-01T11:18:07.619Z,100290.81
2023-05-01T11:21:09.456Z,100298.41
2023-05-01T11:24:11.366Z,100293.81
2023-05-01T11:27:16.307Z,100294.97
2023-05-01T11:30:18.071Z,100293.75
2023-05-01T11:33:22.662Z,100299.69
2023-05-01T11:36:25.165Z,100296.47
2023-05-01T11:39:26.763Z,100291.34
2023-05-01T11:42:28.150Z,100284.16
2023-05-01T11:45:30.494Z,100290.38
2023-05-01T11:48:32.695Z,100283.94
2023-05-01T11:51:35.118Z,100284.47
2023-05-01T11:54:47.990Z,100276.19
2023-05-01T11:57:53.414Z,100277.38
2023-05-01T12:00:55.146Z,100279.94
2023-05-01T12:03:57.309Z,100274.09
2023-05-01T12:06:59.223Z,100274.22
2023-05-01T12:10:00.782Z,100273.56
2023-05-01T12:13:04.121Z,100271.84
2023-05-01T12:16:05.873Z,100272.94
2023-05-01T12:19:08.446Z,100268.28
2023-05-01T12:22:09.966Z,100270.84
2023-05-01T12:25:11.531Z,100274.66
2023-05-01T12:28:14.461Z,100269.06
2023-05-01T12:31:17.146Z,100273.56
2023-05-01T12:34:29.023Z,100274.81
2023-05-01T12:37:32.237Z,100272.91
2023-05-01T12:40:33.929Z,100267.97
2023-05-01T12:43:37.253Z,100266.53
2023-05-01T12:46:41.940Z,100266.97
2023-05-01T12:49:44.611Z,100263.53
2023-05-01T12:52:46.045Z,100267.16
2023-05-01T12:55:52.949Z,100267.38
2023-05-01T12:58:55.220Z,100264.63
2023-05-01T13:02:02.071Z,100267.28
2023-05-01T13:05:11.672Z,100267.84
2023-05-01T13:08:13.108Z,100263.09
2023-05-01T13:11:16.768Z,100260.72
2023-05-01T13:14:19.295Z,100260.84
2023-05-01T13:17:31.316Z,100261.72
2023-05-01T13:20:33.089Z,100264.25
2023-05-01T13:23:36.310Z,100258.63
2023-05-01T13:26:38.176Z,100257.78
2023-05-01T13:29:41.593Z,100248.25
2023-05-01T13:32:43.104Z,100251.88
2023-05-01T13:35:44.573Z,100248.66
2023-05-01T13:38:51.378Z,100250.81
2023-05-01T13:41:53.551Z,100243.13
2023-05-01T13:44:56.562Z,100240.44
2023-05-01T13:47:58.163Z,100244.59
2023-05-01T13:50:59.864Z,100238.41
2023-05-01T13:54:03.307Z,100231.38
2023-05-01T13:57:05.091Z,100228.69
2023-05-01T14:00:08.971Z,100233.06
2023-05-01T14:03:18.606Z,100228.25
2023-05-01T14:06:21.007Z,100225.91
2023-05-01T14:09:22.882Z,100221.00
2023-05-01T14:12:30.464Z,100221.38
2023-05-01T14:15:33.915Z,100219.38
2023-05-01T14:18:36.426Z,100212.75
2023-05-01T14:21:42.432Z,100208.59
2023-05-01T14:24:44.188Z,100204.78
2023-05-01T14:27:45.670Z,100199.09
2023-05-01T14:30:49.039Z,100194.16
2023-05-01T14:33:57.757Z,100204.84
2023-05-01T14:36:59.306Z,100198.06
2023-05-01T14:40:03.343Z,100196.75
2023-05-01T14:43:05.948Z,100195.41
2023-05-01T14:46:07.399Z,100200.25
2023-05-01T14:49:12.226Z,100202.94
2023-05-01T14:52:20.200Z,100212.06
2023-05-01T14:55:28.857Z,100213.69
2023-05-01T14:58:30.330Z,100207.00
2023-05-01T15:01:32.261Z,100209.34
2023-05-01T15:04:33.931Z,100212.22
2023-05-01T15:07:35.466Z,100215.03
2023-05-01T15:10:38.471Z,100210.03
2023-05-01T15:13:41.267Z,100215.19
2023-05-01T15:16:43.216Z,100202.97
2023-05-01T15:19:44.879Z,100198.56
2023-05-01T15:22:46.352Z,100212.19
2023-05-01T15:25:50.398Z,100207.75
2023-05-01T15:28:52.137Z,100200.50
2023-05-01T15:32:04.545Z,100200.13
2023-05-01T15:35:12.835Z,100203.81
2023-05-01T15:38:14.571Z,100197.91
2023-05-01T15:41:18.292Z,100194.72
2023-05-01T15:44:21.277Z,100200.53
2023-05-01T15:47:22.726Z,100205.03
2023-05-01T15:50:24.242Z,100196.28
2023-05-01T15:53:25.695Z,100199.97
2023-05-01T15:56:27.560Z,100204.63
2023-05-01T15:59:29.321Z,100215.66
2023-05-01T16:02:32.580Z,100216.75
2023-05-01T16:05:36.633Z,100224.88
2023-05-01T16:08:39.039Z,100219.69
2023-05-01T16:11:40.569Z,100222.75
2023-05-01T16:14:42.257Z,100222.22
2023-05-01T16:17:45.179Z,100226.09
2023-05-01T16:20:46.658Z,100223.22
2023-05-01T16:23:48.574Z,100231.50
2023-05-01T16:26:50.443Z,100241.91
2023-05-01T16:29:52.448Z,100238.50
2023-05-01T16:32:53.912Z,100238.22
2023-05-01T16:35:55.385Z,100234.03
2023-05-01T16:38:56.859Z,100242.69
2023-05-01T16:41:59.314Z,100245.47
2023-05-01T16:45:01.687Z,100241.22
2023-05-01T16:48:03.507Z,100248.78
2023-05-01T16:51:06.477Z,100237.84
2023-05-01T16:54:08.317Z,100250.13
2023-05-01T16:57:09.993Z,100246.69
2023-05-01T17:00:11.848Z,100250.19
2023-05-01T17:03:15.959Z,100250.50
2023-05-01T17:06:18.233Z,100249.22
2023-05-01T17:09:19.889Z,100254.53
2023-05-01T17:12:29.580Z,100259.25
2023-05-01T17:15:30.948Z,100264.56
2023-05-01T17:18:32.330Z,100279.06
2023-05-01T17:21:34.085Z,100277.47
2023-05-01T17:24:36.189Z,100283.50
2023-05-01T17:27:37.725Z,100276.84
2023-05-01T17:30:39.186Z,100278.81
2023-05-01T17:33:40.643Z,100284.03
2023-05-01T17:36:42.631Z,100287.38
2023-05-01T17:39:44.039Z,100288.72
2023-05-01T17:42:45.482Z,100290.50
2023-05-01T17:45:47.861Z,100287.75
2023-05-01T17:48:49.323Z,100297.19
2023-05-01T17:51:50.820Z,100298.41
2023-05-01T17:54:52.372Z,100302.44
2023-05-01T17:57:53.774Z,100307.69
2023-05-01T18:00:57.000Z,100307.97
2023-05-01T18:04:00.504Z,100310.63
2023-05-01T18:07:01.958Z,100314.25
2023-05-01T18:10:03.916Z,100320.31
2023-05-01T18:13:05.323Z,100329.25
2023-05-01T18:16:09.030Z,100336.94
2023-05-01T18:19:10.463Z,100339.09
2023-05-01T18:22:11.854Z,100346.59
2023-05-01T18:25:16.074Z,100347.88
2023-05-01T18:28:18.929Z,100350.72
2023-05-01T18:31:20.453Z,100358.91
2023-05-01T18:34:21.912Z,100365.97
2023-05-01T18:37:25.660Z,100363.75
2023-05-01T18:40:27.245Z,100362.72
2023-05-01T18:43:28.731Z,100364.44
2023-05-01T18:46:30.297Z,100370.69
2023-05-01T18:49:31.725Z,100368.56
2023-05-01T18:52:33.401Z,100378.16
2023-05-01T18:55:35.225Z,100389.66
2023-05-01T18:58:36.594Z,100399.94
2023-05-01T19:01:38.178Z,100406.00
2023-05-01T19:04:55.933Z,100407.84
2023-05-01T19:08:01.674Z,100421.34
2023-05-01T19:11:04.510Z,100418.94
2023-05-01T19:14:07.492Z,100420.84
2023-05-01T19:17:08.984Z,100429.81
2023-05-01T19:20:10.743Z,100436.84
2023-05-01T19:23:12.168Z,100432.22
2023-05-01T19:26:13.675Z,100428.56
2023-05-01T19:29:15.241Z,100431.22
2023-05-01T19:32:17.456Z,100433.69
2023-05-01T19:35:18.881Z,100444.41
2023-05-01T19:38:20.337Z,100451.53
2023-05-01T19:41:21.721Z,100450.75
2023-05-01T19:44:23.098Z,100453.91
2023-05-01T19:47:25.527Z,100458.47
2023-05-01T19:50:28.403Z,100462.94
2023-05-01T19:53:31.012Z,100459.84
2023-05-01T19:56:32.665Z,100468.75
2023-05-01T19:59:38.681Z,100466.34
2023-05-01T20:02:41.357Z,100465.47
2023-05-01T20:05:42.969Z,100477.41
2023-05-01T20:08:44.618Z,100482.34
2023-05-01T20:11:46.022Z,100489.81
2023-05-01T20:14:47.853Z,100493.25
2023-05-01T20:17:52.191Z,100489.78
2023-05-01T20:20:53.694Z,100503.22
2023-05-01T20:23:55.079Z,100502.00
2023-05-01T20:26:58.112Z,100501.19
2023-05-01T20:30:00.391Z,100505.13
2023-05-01T20:33:01.986Z,100506.34
2023-05-01T20:36:03.832Z,100504.47
2023-05-01T20:39:05.411Z,100503.25
2023-05-01T20:42:06.811Z,100511.44
2023-05-01T20:45:08.993Z,100508.78
2023-05-01T20:48:11.273Z,100513.38
2023-05-01T20:51:13.723Z,100505.09
2023-05-01T20:54:15.208Z,100515.78
2023-05-01T20:57:16.675Z,100511.47
2023-05-01T21:00:18.174Z,100517.78
2023-05-01T21:03:19.687Z,100515.53
2023-05-01T21:06:21.225Z,100517.66
2023-05-01T21:09:22.648Z,100519.38
2023-05-01T21:12:24.106Z,100523.91
2023-05-01T21:15:26.829Z,100521.63
2023-05-01T21:18:33.114Z,100516.09
2023-05-01T21:21:35.998Z,100525.22
2023-05-01T21:24:39.706Z,100526.13
2023-05-01T21:27:43.973Z,100523.50
2023-05-01T21:30:47.795Z,100531.63
2023-05-01T21:33:49.755Z,100534.41
2023-05-01T21:36:51.205Z,100533.28
2023-05-01T21:39:52.683Z,100536.69
2023-05-01T21:42:54.695Z,100544.28
2023-05-01T21:45:56.139Z,100547.22
2023-05-01T21:48:57.578Z,100546.81
2023-05-01T21:52:00.811Z,100547.72
2023-05-01T21:55:04.292Z,100554.81
2023-05-01T21:58:05.768Z,100555.63
2023-05-01T22:01:09.334Z,100552.09
2023-05-01T22:04:17.118Z,100561.63
2023-05-01T22:07:18.608Z,100563.72
2023-05-01T22:10:20.885Z,100562.94
2023-05-01T22:13:22.263Z,100572.59
2023-05-01T22:16:23.715Z,100561.78
2023-05-01T22:19:25.532Z,100570.59
2023-05-01T22:22:26.897Z,100565.50
2023-05-01T22:25:28.603Z,100573.81
2023-05-01T22:28:29.991Z,100575.03
2023-05-01T22:31:31.414Z,100584.84
2023-05-01T22:34:32.862Z,100574.09
2023-05-01T22:37:34.245Z,100584.03
2023-05-01T22:40:35.811Z,100589.22
2023-05-01T22:43:37.188Z,100596.38
2023-05-01T22:46:38.696Z,100590.16
2023-05-01T22:49:40.111Z,100594.44
2023-05-01T22:52:41.565Z,100592.00
2023-05-01T22:55:42.935Z,100595.34
2023-05-01T22:58:44.338Z,100593.66
2023-05-01T23:01:46.220Z,100598.78
2023-05-01T23:04:47.645Z,100586.97
2023-05-01T23:07:49.009Z,100595.72
2023-05-01T23:10:50.651Z,100597.38
2023-05-01T23:13:52.205Z,100594.66
2023-05-01T23:16:53.834Z,100606.16
2023-05-01T23:19:58.292Z,100597.44
2023-05-01T23:23:05.076Z,100601.81
2023-05-01T23:26:06.457Z,100603.88
2023-05-01T23:29:07.864Z,100607.06
2023-05-01T23:32:18.201Z,100602.44
2023-05-01T23:35:24.927Z,100608.25
2023-05-01T23:38:26.328Z,100603.41
2023-05-01T23:41:28.263Z,100597.03
2023-05-01T23:44:30.283Z,100595.19
2023-05-01T23:47:31.715Z,100602.59
2023-05-01T23:50:33.372Z,100602.75
2023-05-01T23:53:34.768Z,100595.78
2023-05-01T23:56:36.385Z,100614.28
2023-05-01T23:59:37.946Z,100613.47
